createdAt,value
2018-05-02T00:01:59.356Z,14.62
2018-05-02T00:04:27.257Z,14.45
2018-05-02T00:06:54.808Z,14.29
2018-05-02T00:09:22.608Z,14.22
2018-05-02T00:11:50.197Z,14.16
2018-05-02T00:14:17.760Z,14.10
2018-05-02T00:16:45.376Z,14.11
2018-05-02T00:19:13.179Z,14.10
2018-05-02T00:21:40.749Z,14.04
2018-05-02T00:24:08.349Z,13.98
2018-05-02T00:26:36.109Z,14.03
2018-05-02T00:29:03.744Z,14.10
2018-05-02T00:31:31.274Z,14.04
2018-05-02T00:33:58.884Z,13.93
2018-05-02T00:36:26.461Z,13.78
2018-05-02T00:38:54.032Z,13.56
2018-05-02T00:41:21.653Z,13.48
2018-05-02T00:43:49.216Z,13.38
2018-05-02T00:46:17.776Z,13.19
2018-05-02T00:48:57.285Z,13.32
2018-05-02T00:51:24.958Z,13.28
2018-05-02T00:53:52.715Z,13.18
2018-05-02T00:56:20.494Z,13.13
2018-05-02T00:58:48.053Z,13.04
2018-05-02T01:01:15.617Z,13.05
2018-05-02T01:03:43.167Z,13.07
2018-05-02T01:06:10.907Z,13.14
2018-05-02T01:08:38.463Z,13.10
2018-05-02T01:11:06.153Z,13.02
2018-05-02T01:13:33.798Z,12.99
2018-05-02T01:16:01.538Z,12.85
2018-05-02T01:18:29.356Z,12.83
2018-05-02T01:20:57.047Z,12.77
2018-05-02T01:23:24.793Z,12.70
2018-05-02T01:25:52.416Z,12.69
2018-05-02T01:28:20.000Z,12.66
2018-05-02T01:30:47.753Z,12.64
2018-05-02T01:33:15.465Z,12.57
2018-05-02T01:35:43.284Z,12.56
2018-05-02T01:38:10.852Z,12.48
2018-05-02T01:40:38.512Z,12.43
2018-05-02T01:43:06.323Z,12.43
2018-05-02T01:45:33.920Z,12.41
2018-05-02T01:48:01.777Z,12.36
2018-05-02T01:50:29.498Z,12.37
2018-05-02T01:52:57.213Z,12.43
2018-05-02T01:55:24.788Z,12.50
2018-05-02T01:57:52.934Z,12.50
2018-05-02T02:00:20.738Z,12.40
2018-05-02T02:02:48.338Z,12.31
2018-05-02T02:05:16.071Z,12.28
2018-05-02T02:07:43.640Z,12.25
2018-05-02T02:10:11.249Z,12.17
2018-05-02T02:12:38.825Z,12.13
2018-05-02T02:15:06.446Z,12.14
2018-05-02T02:17:34.297Z,12.14
2018-05-02T02:20:01.865Z,12.09
2018-05-02T02:22:29.637Z,12.11
2018-05-02T02:24:57.213Z,12.10
2018-05-02T02:27:24.971Z,12.07
2018-05-02T02:29:52.705Z,12.06
2018-05-02T02:32:20.258Z,11.99
2018-05-02T02:34:48.094Z,11.88
2018-05-02T02:37:15.744Z,11.78
2018-05-02T02:39:43.305Z,11.70
2018-05-02T02:42:11.082Z,11.64
2018-05-02T02:44:38.896Z,11.59
2018-05-02T02:47:06.490Z,11.56
2018-05-02T02:49:34.053Z,11.56
2018-05-02T02:52:01.639Z,11.61
2018-05-02T02:54:29.241Z,11.59
2018-05-02T02:56:57.087Z,11.49
2018-05-02T02:59:24.685Z,11.39
2018-05-02T03:01:52.403Z,11.26
2018-05-02T03:04:20.114Z,11.17
2018-05-02T03:06:47.751Z,11.17
2018-05-02T03:09:15.332Z,11.24
2018-05-02T03:11:42.905Z,11.25
2018-05-02T03:14:10.490Z,11.27
2018-05-02T03:16:38.108Z,11.36
2018-05-02T03:19:05.780Z,11.36
2018-05-02T03:21:33.356Z,11.20
2018-05-02T03:24:00.939Z,11.52
2018-05-02T03:26:28.673Z,11.52
2018-05-02T03:28:56.523Z,11.53
2018-05-02T03:31:24.342Z,11.47
2018-05-02T03:33:51.950Z,11.41
2018-05-02T03:36:19.733Z,11.37
2018-05-02T03:38:47.410Z,11.26
2018-05-02T03:41:15.214Z,11.25
2018-05-02T03:43:42.946Z,11.25
2018-05-02T03:46:10.481Z,11.26
2018-05-02T03:48:38.269Z,11.28
2018-05-02T03:51:06.086Z,11.28
2018-05-02T03:53:33.656Z,11.34
2018-05-02T03:56:01.290Z,11.36
2018-05-02T03:58:28.848Z,11.35
2018-05-02T04:01:08.148Z,11.37
2018-05-02T04:03:47.749Z,11.32
2018-05-02T04:06:35.320Z,11.33
2018-05-02T04:09:02.912Z,11.40
2018-05-02T04:11:30.568Z,11.46
2018-05-02T04:13:58.300Z,11.52
2018-05-02T04:16:25.994Z,11.58
2018-05-02T04:18:53.580Z,11.58
2018-05-02T04:21:21.179Z,11.59
2018-05-02T04:23:48.972Z,11.64
2018-05-02T04:26:16.558Z,11.69
2018-05-02T04:28:44.279Z,11.68
2018-05-02T04:31:11.950Z,11.65
2018-05-02T04:33:39.748Z,11.73
2018-05-02T04:36:07.373Z,11.79
2018-05-02T04:38:34.941Z,11.84
2018-05-02T04:41:02.608Z,11.84
2018-05-02T04:43:30.435Z,11.80
2018-05-02T04:45:57.993Z,11.86
2018-05-02T04:48:25.631Z,11.91
2018-05-02T04:50:53.372Z,11.97
2018-05-02T04:53:21.073Z,12.02
2018-05-02T04:55:48.810Z,12.12
2018-05-02T04:58:16.385Z,12.22
2018-05-02T05:00:44.056Z,12.30
2018-05-02T05:03:11.814Z,12.44
2018-05-02T05:05:39.577Z,12.61
2018-05-02T05:08:07.194Z,12.73
2018-05-02T05:10:35.027Z,12.85
2018-05-02T05:13:02.654Z,12.99
2018-05-02T05:15:30.230Z,13.18
2018-05-02T05:17:57.972Z,13.43
2018-05-02T05:20:25.541Z,13.79
2018-05-02T05:22:53.293Z,14.27
2018-05-02T05:25:20.908Z,14.81
2018-05-02T05:27:48.724Z,15.46
2018-05-02T05:30:16.233Z,16.14
2018-05-02T05:32:43.871Z,17.02
2018-05-02T05:35:11.431Z,17.75
2018-05-02T05:37:39.087Z,18.55
2018-05-02T05:40:06.648Z,19.32
2018-05-02T05:42:34.452Z,19.92
2018-05-02T05:45:02.100Z,20.41
2018-05-02T05:47:29.790Z,20.96
2018-05-02T05:49:57.364Z,21.45
2018-05-02T05:52:24.942Z,22.12
2018-05-02T05:54:52.569Z,22.87
2018-05-02T05:57:20.130Z,23.66
2018-05-02T05:59:47.692Z,24.29
2018-05-02T06:02:15.498Z,24.97
2018-05-02T06:04:43.052Z,25.32
2018-05-02T06:07:10.833Z,25.49
2018-05-02T06:09:38.392Z,26.03
2018-05-02T06:12:06.014Z,26.48
2018-05-02T06:14:33.770Z,27.05
2018-05-02T06:17:01.328Z,27.21
2018-05-02T06:19:28.900Z,27.19
2018-05-02T06:21:56.617Z,27.69
2018-05-02T06:24:24.181Z,28.20
2018-05-02T06:26:51.869Z,29.07
2018-05-02T06:29:19.696Z,29.66
2018-05-02T06:31:47.517Z,29.52
2018-05-02T06:34:15.126Z,29.60
2018-05-02T06:36:42.697Z,29.50
2018-05-02T06:39:10.259Z,29.75
2018-05-02T06:41:38.089Z,29.88
2018-05-02T06:44:05.665Z,29.68
2018-05-02T06:46:33.277Z,29.96
2018-05-02T06:49:00.837Z,30.49
2018-05-02T06:51:28.400Z,30.99
2018-05-02T06:53:55.968Z,31.25
2018-05-02T06:56:23.520Z,31.31
2018-05-02T06:58:51.105Z,31.47
2018-05-02T07:01:18.657Z,31.46
2018-05-02T07:03:46.272Z,31.68
2018-05-02T07:06:13.832Z,32.11
2018-05-02T07:08:41.392Z,32.62
2018-05-02T07:11:08.972Z,33.11
2018-05-02T07:13:36.605Z,33.55
2018-05-02T07:16:04.270Z,33.59
2018-05-02T07:18:31.836Z,33.63
2018-05-02T07:20:59.424Z,34.23
2018-05-02T07:23:27.191Z,34.86
2018-05-02T07:25:54.762Z,34.67
2018-05-02T07:28:22.385Z,34.89
2018-05-02T07:30:49.952Z,35.31
2018-05-02T07:33:17.769Z,34.70
2018-05-02T07:35:45.373Z,34.50
2018-05-02T07:38:13.100Z,34.23
2018-05-02T07:40:40.713Z,34.21
2018-05-02T07:43:08.433Z,33.84
2018-05-02T07:45:35.988Z,32.86
2018-05-02T07:48:03.742Z,33.06
2018-05-02T07:50:31.400Z,32.85
2018-05-02T07:52:58.985Z,33.26
2018-05-02T07:55:26.678Z,33.52
2018-05-02T07:57:54.268Z,34.02
2018-05-02T08:00:21.829Z,34.18
2018-05-02T08:02:49.583Z,34.18
2018-05-02T08:05:17.214Z,34.34
2018-05-02T08:07:44.776Z,34.30
2018-05-02T08:10:12.498Z,33.80
2018-05-02T08:12:40.057Z,33.48
2018-05-02T08:15:07.669Z,33.13
2018-05-02T08:17:35.224Z,33.84
2018-05-02T08:20:02.783Z,34.29
2018-05-02T08:22:30.464Z,34.07
2018-05-02T08:24:58.244Z,33.76
2018-05-02T08:27:25.816Z,32.42
2018-05-02T08:29:53.581Z,32.29
2018-05-02T08:32:21.188Z,32.12
2018-05-02T08:34:48.748Z,32.54
2018-05-02T08:37:16.533Z,33.05
2018-05-02T08:39:44.149Z,33.70
2018-05-02T08:42:11.701Z,33.93
2018-05-02T08:44:39.273Z,34.48
2018-05-02T08:47:07.007Z,34.71
2018-05-02T08:49:34.824Z,35.42
2018-05-02T08:52:02.380Z,35.95
2018-05-02T08:54:29.937Z,36.18
2018-05-02T08:56:57.678Z,36.01
2018-05-02T08:59:25.465Z,35.49
2018-05-02T09:01:53.096Z,35.48
2018-05-02T09:04:20.676Z,35.22
2018-05-02T09:06:49.184Z,35.03
2018-05-02T09:09:16.745Z,34.28
2018-05-02T09:11:44.297Z,34.48
2018-05-02T09:14:11.897Z,34.51
2018-05-02T09:16:39.625Z,34.63
2018-05-02T09:19:07.195Z,34.25
2018-05-02T09:21:34.750Z,33.56
2018-05-02T09:24:02.337Z,33.63
2018-05-02T09:26:29.960Z,34.13
2018-05-02T09:28:57.718Z,33.99
2018-05-02T09:31:25.310Z,33.53
2018-05-02T09:33:52.868Z,32.42
2018-05-02T09:36:20.476Z,32.43
2018-05-02T09:38:48.289Z,32.92
2018-05-02T09:41:15.979Z,32.93
2018-05-02T09:43:43.697Z,33.00
2018-05-02T09:46:11.412Z,32.37
2018-05-02T09:48:38.980Z,32.26
2018-05-02T09:51:06.541Z,32.27
2018-05-02T09:53:34.164Z,32.49
2018-05-02T09:56:01.818Z,32.65
2018-05-02T09:58:29.372Z,32.83
2018-05-02T10:00:57.061Z,32.91
2018-05-02T10:03:24.620Z,32.90
2018-05-02T10:05:52.371Z,33.04
2018-05-02T10:08:20.103Z,33.13
2018-05-02T10:10:47.813Z,33.14
2018-05-02T10:13:15.446Z,33.34
2018-05-02T10:15:43.012Z,33.30
2018-05-02T10:18:10.577Z,33.36
2018-05-02T10:20:38.178Z,33.62
2018-05-02T10:23:06.016Z,33.47
2018-05-02T10:25:33.617Z,33.61
2018-05-02T10:28:01.318Z,33.56
2018-05-02T10:30:28.916Z,33.13
2018-05-02T10:32:56.473Z,32.91
2018-05-02T10:35:24.092Z,32.93
2018-05-02T10:37:51.919Z,32.76
2018-05-02T10:40:19.738Z,32.76
2018-05-02T10:42:47.459Z,32.83
2018-05-02T10:45:15.075Z,32.52
2018-05-02T10:47:42.648Z,32.00
2018-05-02T10:50:10.279Z,32.02
2018-05-02T10:52:37.999Z,32.32
2018-05-02T10:55:05.559Z,32.40
2018-05-02T10:57:33.134Z,32.20
2018-05-02T11:00:00.742Z,31.99
2018-05-02T11:02:28.424Z,32.03
2018-05-02T11:04:56.120Z,31.87
2018-05-02T11:07:23.678Z,31.61
2018-05-02T11:09:52.602Z,31.61
2018-05-02T11:12:20.212Z,31.55
2018-05-02T11:14:47.783Z,31.67
2018-05-02T11:17:15.538Z,31.76
2018-05-02T11:19:43.132Z,31.95
2018-05-02T11:22:10.728Z,32.05
2018-05-02T11:24:38.281Z,32.18
2018-05-02T11:27:06.249Z,32.10
2018-05-02T11:29:33.804Z,31.66
2018-05-02T11:32:01.375Z,31.61
2018-05-02T11:34:28.999Z,31.61
2018-05-02T11:36:56.624Z,31.62
2018-05-02T11:39:24.179Z,31.59
2018-05-02T11:41:51.865Z,31.73
2018-05-02T11:44:19.449Z,31.85
2018-05-02T11:46:46.986Z,31.93
2018-05-02T11:49:14.729Z,31.81
2018-05-02T11:51:42.697Z,31.87
2018-05-02T11:54:10.318Z,31.72
2018-05-02T11:56:38.005Z,31.52
2018-05-02T11:59:05.563Z,31.65
2018-05-02T12:01:33.146Z,31.72
2018-05-02T12:04:00.689Z,31.58
2018-05-02T12:06:28.260Z,31.46
2018-05-02T12:08:55.834Z,31.24
2018-05-02T12:11:23.426Z,31.24
2018-05-02T12:13:51.038Z,31.07
2018-05-02T12:16:18.766Z,31.05
2018-05-02T12:18:46.318Z,30.95
2018-05-02T12:21:13.894Z,31.15
2018-05-02T12:23:41.464Z,31.11
2018-05-02T12:26:09.136Z,31.09
2018-05-02T12:28:36.823Z,31.04
2018-05-02T12:31:04.408Z,31.17
2018-05-02T12:33:31.957Z,31.14
2018-05-02T12:35:59.582Z,31.19
2018-05-02T12:38:27.189Z,31.24
2018-05-02T12:40:54.839Z,31.21
2018-05-02T12:43:22.438Z,31.04
2018-05-02T12:45:50.053Z,30.77
2018-05-02T12:48:17.624Z,30.87
2018-05-02T12:50:45.183Z,31.05
2018-05-02T12:53:12.814Z,31.07
2018-05-02T12:55:40.380Z,30.74
2018-05-02T12:58:07.994Z,30.47
2018-05-02T13:00:35.563Z,30.53
2018-05-02T13:03:03.229Z,30.70
2018-05-02T13:05:30.845Z,30.56
2018-05-02T13:07:58.414Z,30.45
2018-05-02T13:10:25.996Z,30.00
2018-05-02T13:12:53.617Z,29.79
2018-05-02T13:15:21.230Z,30.04
2018-05-02T13:17:48.911Z,30.09
2018-05-02T13:20:16.521Z,30.10
2018-05-02T13:22:44.181Z,30.10
2018-05-02T13:25:11.722Z,30.40
2018-05-02T13:27:39.374Z,30.63
2018-05-02T13:30:06.944Z,30.43
2018-05-02T13:32:34.495Z,30.23
2018-05-02T13:35:02.127Z,30.25
2018-05-02T13:37:29.736Z,30.37
2018-05-02T13:39:57.404Z,30.48
2018-05-02T13:42:25.017Z,30.33
2018-05-02T13:44:52.614Z,30.26
2018-05-02T13:47:20.169Z,30.39
2018-05-02T13:49:47.836Z,30.28
2018-05-02T13:52:15.410Z,30.09
2018-05-02T13:54:43.259Z,30.06
2018-05-02T13:57:10.880Z,30.12
2018-05-02T13:59:38.608Z,29.98
2018-05-02T14:02:06.320Z,30.09
2018-05-02T14:04:33.884Z,30.01
2018-05-02T14:07:01.447Z,29.85
2018-05-02T14:09:29.077Z,29.82
2018-05-02T14:11:56.809Z,29.65
2018-05-02T14:14:24.481Z,29.49
2018-05-02T14:16:52.249Z,29.38
2018-05-02T14:19:19.822Z,29.29
2018-05-02T14:21:47.388Z,29.32
2018-05-02T14:24:14.954Z,29.46
2018-05-02T14:26:42.505Z,29.37
2018-05-02T14:29:10.056Z,29.38
2018-05-02T14:31:37.851Z,29.32
2018-05-02T14:34:05.505Z,29.06
2018-05-02T14:36:33.079Z,29.10
2018-05-02T14:39:00.702Z,28.99
2018-05-02T14:41:28.257Z,28.75
2018-05-02T14:43:55.823Z,28.60
2018-05-02T14:46:23.392Z,28.35
2018-05-02T14:48:51.034Z,28.37
2018-05-02T14:51:18.584Z,28.28
2018-05-02T14:53:46.180Z,28.32
2018-05-02T14:56:13.765Z,28.35
2018-05-02T14:58:41.345Z,28.34
2018-05-02T15:01:08.920Z,28.24
2018-05-02T15:03:36.542Z,28.20
2018-05-02T15:06:04.233Z,28.08
2018-05-02T15:08:31.861Z,27.99
2018-05-02T15:10:59.540Z,27.91
2018-05-02T15:13:27.125Z,27.75
2018-05-02T15:15:54.701Z,27.83
2018-05-02T15:18:22.342Z,27.75
2018-05-02T15:20:49.895Z,27.72
2018-05-02T15:23:17.504Z,27.53
2018-05-02T15:25:45.255Z,27.45
2018-05-02T15:28:13.071Z,27.43
2018-05-02T15:30:40.789Z,27.52
2018-05-02T15:33:08.502Z,27.56
2018-05-02T15:35:36.149Z,27.54
2018-05-02T15:38:03.832Z,27.36
2018-05-02T15:40:31.393Z,27.25
2018-05-02T15:42:59.178Z,27.05
2018-05-02T15:45:26.805Z,26.91
2018-05-02T15:47:54.445Z,26.77
2018-05-02T15:50:22.140Z,26.62
2018-05-02T15:52:49.785Z,26.52
2018-05-02T15:55:17.560Z,26.39
2018-05-02T15:57:45.390Z,26.35
2018-05-02T16:00:12.976Z,26.31
2018-05-02T16:02:40.538Z,26.19
2018-05-02T16:05:08.140Z,26.13
2018-05-02T16:07:35.828Z,26.12
2018-05-02T16:10:03.520Z,26.15
2018-05-02T16:12:31.183Z,26.09
2018-05-02T16:14:58.903Z,25.81
2018-05-02T16:17:26.729Z,25.72
2018-05-02T16:19:54.320Z,25.53
2018-05-02T16:22:21.889Z,25.37
2018-05-02T16:24:49.440Z,25.21
2018-05-02T16:27:17.079Z,25.07
2018-05-02T16:29:44.689Z,24.98
2018-05-02T16:32:12.301Z,24.87
2018-05-02T16:34:39.956Z,24.78
2018-05-02T16:37:07.589Z,24.69
2018-05-02T16:39:35.148Z,24.56
2018-05-02T16:42:02.757Z,24.48
2018-05-02T16:44:30.453Z,24.41
2018-05-02T16:46:58.070Z,24.36
2018-05-02T16:49:25.681Z,24.30
2018-05-02T16:51:53.305Z,24.20
2018-05-02T16:54:20.978Z,24.14
2018-05-02T16:56:48.536Z,24.08
2018-05-02T16:59:16.163Z,23.96
2018-05-02T17:01:43.853Z,23.91
2018-05-02T17:04:11.531Z,23.88
2018-05-02T17:06:39.034Z,23.83
2018-05-02T17:09:06.656Z,23.79
2018-05-02T17:11:34.290Z,23.71
2018-05-02T17:14:01.934Z,23.66
2018-05-02T17:16:29.517Z,23.63
2018-05-02T17:18:57.382Z,23.57
2018-05-02T17:21:24.998Z,23.50
2018-05-02T17:23:52.555Z,23.48
2018-05-02T17:26:20.117Z,23.40
2018-05-02T17:28:47.751Z,23.34
2018-05-02T17:31:15.319Z,23.26
2018-05-02T17:33:42.931Z,23.21
2018-05-02T17:36:10.596Z,23.18
2018-05-02T17:38:38.217Z,23.11
2018-05-02T17:41:05.808Z,23.05
2018-05-02T17:43:33.396Z,23.03
2018-05-02T17:46:01.021Z,22.99
2018-05-02T17:48:28.632Z,22.92
2018-05-02T17:50:56.189Z,22.85
2018-05-02T17:53:23.744Z,22.83
2018-05-02T17:55:51.294Z,22.80
2018-05-02T17:58:18.854Z,22.80
2018-05-02T18:00:46.504Z,22.79
2018-05-02T18:03:14.224Z,22.74
2018-05-02T18:05:42.019Z,22.69
2018-05-02T18:08:09.713Z,22.68
2018-05-02T18:10:37.275Z,22.64
2018-05-02T18:13:04.959Z,22.61
2018-05-02T18:15:32.533Z,22.56
2018-05-02T18:18:00.101Z,22.48
2018-05-02T18:20:27.729Z,22.46
2018-05-02T18:22:55.327Z,22.41
2018-05-02T18:25:22.914Z,22.40
2018-05-02T18:27:50.474Z,22.39
2018-05-02T18:30:18.035Z,22.40
2018-05-02T18:32:45.707Z,22.40
2018-05-02T18:35:13.435Z,22.33
2018-05-02T18:37:41.114Z,22.31
2018-05-02T18:40:08.972Z,22.28
2018-05-02T18:42:36.557Z,22.24
2018-05-02T18:45:04.157Z,22.20
2018-05-02T18:47:31.799Z,22.12
2018-05-02T18:49:59.372Z,22.10
2018-05-02T18:52:26.946Z,22.09
2018-05-02T18:54:54.497Z,22.05
2018-05-02T18:57:22.186Z,21.99
2018-05-02T18:59:49.917Z,21.94
2018-05-02T19:02:17.477Z,21.93
2018-05-02T19:04:45.152Z,21.89
2018-05-02T19:07:12.721Z,21.86
2018-05-02T19:09:40.469Z,21.86
2018-05-02T19:12:08.056Z,21.80
2018-05-02T19:14:35.665Z,21.73
2018-05-02T19:17:03.260Z,21.68
2018-05-02T19:19:36.386Z,21.65
2018-05-02T19:22:04.200Z,21.59
2018-05-02T19:24:37.472Z,21.54
2018-05-02T19:27:05.134Z,21.47
2018-05-02T19:29:32.763Z,21.43
2018-05-02T19:32:05.770Z,21.36
2018-05-02T19:34:33.526Z,21.35
2018-05-02T19:37:01.139Z,21.36
2018-05-02T19:39:28.728Z,21.28
2018-05-02T19:42:02.013Z,21.21
2018-05-02T19:44:29.819Z,21.17
2018-05-02T19:46:57.389Z,21.07
2018-05-02T19:49:24.965Z,21.03
2018-05-02T19:51:58.148Z,20.98
2018-05-02T19:54:25.758Z,20.93
2018-05-02T19:56:53.370Z,20.86
2018-05-02T19:59:21.119Z,20.81
2018-05-02T20:01:54.192Z,20.75
2018-05-02T20:04:21.906Z,20.66
2018-05-02T20:06:49.468Z,20.54
2018-05-02T20:09:22.650Z,20.51
2018-05-02T20:11:55.897Z,20.29
2018-05-02T20:14:23.715Z,20.33
2018-05-02T20:16:51.532Z,20.27
2018-05-02T20:19:19.075Z,20.21
2018-05-02T20:21:46.640Z,20.14
2018-05-02T20:24:14.192Z,20.08
2018-05-02T20:26:42.008Z,20.00
2018-05-02T20:29:09.612Z,19.97
2018-05-02T20:31:37.441Z,19.99
2018-05-02T20:34:04.997Z,19.97
2018-05-02T20:36:32.578Z,19.89
2018-05-02T20:39:00.133Z,19.78
2018-05-02T20:41:27.694Z,19.68
2018-05-02T20:43:55.398Z,19.63
2018-05-02T20:46:23.164Z,19.52
2018-05-02T20:48:50.771Z,19.49
2018-05-02T20:51:18.589Z,19.53
2018-05-02T20:53:46.157Z,19.48
2018-05-02T20:56:13.921Z,19.46
2018-05-02T20:58:41.639Z,19.43
2018-05-02T21:01:09.204Z,19.39
2018-05-02T21:03:36.761Z,19.35
2018-05-02T21:06:04.388Z,19.36
2018-05-02T21:08:32.111Z,19.34
2018-05-02T21:10:59.668Z,19.35
2018-05-02T21:13:27.232Z,19.32
2018-05-02T21:15:54.940Z,19.30
2018-05-02T21:18:22.574Z,19.23
2018-05-02T21:20:50.106Z,19.19
2018-05-02T21:23:17.919Z,19.16
2018-05-02T21:25:45.488Z,19.06
2018-05-02T21:28:13.131Z,19.00
2018-05-02T21:30:40.842Z,18.96
2018-05-02T21:33:08.381Z,18.90
2018-05-02T21:35:35.988Z,18.85
2018-05-02T21:38:03.694Z,18.83
2018-05-02T21:40:31.251Z,18.76
2018-05-02T21:42:59.065Z,18.66
2018-05-02T21:45:26.631Z,18.78
2018-05-02T21:47:54.236Z,18.75
2018-05-02T21:50:21.792Z,18.68
2018-05-02T21:52:49.341Z,18.65
2018-05-02T21:55:17.153Z,18.61
2018-05-02T21:57:44.713Z,18.56
2018-05-02T22:00:12.468Z,18.49
2018-05-02T22:02:40.192Z,18.38
2018-05-02T22:05:07.804Z,18.25
2018-05-02T22:07:35.365Z,18.08
2018-05-02T22:10:03.162Z,18.08
2018-05-02T22:12:30.737Z,17.97
2018-05-02T22:14:58.293Z,17.91
2018-05-02T22:17:25.984Z,17.88
2018-05-02T22:19:53.550Z,17.92
2018-05-02T22:22:21.352Z,17.91
2018-05-02T22:24:48.900Z,17.85
2018-05-02T22:27:16.452Z,17.84
2018-05-02T22:29:44.017Z,17.80
2018-05-02T22:32:11.572Z,17.79
2018-05-02T22:34:39.133Z,17.70
2018-05-02T22:37:06.823Z,17.60
2018-05-02T22:39:34.441Z,17.51
2018-05-02T22:42:02.196Z,17.48
2018-05-02T22:44:29.792Z,17.47
2018-05-02T22:46:57.368Z,17.37
2018-05-02T22:49:24.924Z,17.30
2018-05-02T22:51:52.488Z,17.30
2018-05-02T22:54:20.044Z,17.33
2018-05-02T22:56:47.656Z,17.36
2018-05-02T22:59:15.306Z,17.38
2018-05-02T23:01:42.856Z,17.35
2018-05-02T23:04:10.656Z,17.29
2018-05-02T23:06:38.212Z,17.17
2018-05-02T23:09:05.776Z,17.17
2018-05-02T23:11:33.331Z,17.14
2018-05-02T23:14:01.132Z,17.14
2018-05-02T23:16:28.700Z,17.12
2018-05-02T23:18:56.260Z,17.16
2018-05-02T23:21:23.813Z,17.15
2018-05-02T23:23:51.517Z,17.15
2018-05-02T23:26:19.076Z,17.04
2018-05-02T23:28:46.628Z,16.99
2018-05-02T23:31:14.346Z,16.90
2018-05-02T23:33:41.972Z,16.81
2018-05-02T23:36:09.516Z,16.69
2018-05-02T23:38:37.100Z,16.59
2018-05-02T23:41:04.670Z,16.49
2018-05-02T23:43:32.236Z,16.44
2018-05-02T23:45:59.809Z,16.35
2018-05-02T23:48:27.564Z,16.29
2018-05-02T23:50:55.297Z,16.26
2018-05-02T23:53:22.861Z,16.23
2018-05-02T23:55:50.429Z,16.17
2018-05-02T23:58:18.032Z,16.18
